Rain From: 21-07-2018 02:00 Until: 16:00 warning for: Rain Level: Yellow info button
suomi:
Sadevaroitus: Aamuyöstä alkaen voi sataa rankasti, yli 20 mm tunnissa.

svenska:
Nederbördsvarning: Från och med efternatten kan det förekomma synnerligen riklig nederbörd, mer än 20 mm i timmen.

english:
Heavy rain warning: From the early morning on heavy rain of more than 20 mm per hour can be expected. 

Forest fire From: 20-07-2018 23:00 Until: 21-07-2018 11:00 warning for: Forest fire Level: Yellow info button
suomi:
Metsäpalovaroitus on voimassa.

svenska:
Varning för skogsbrand gäller.

english:
A forest fire warning is in force. 


Thunder radar more information blitzortung!


Löydät sääaseman tiedot myös:

European Weather Network

Finland Weather Exchange

Weather Underground

AWEKAS



Weather Underground säähistoriasivu

Päivittäin yhteenveto Kesäkuu 6, 2017 Yksiköt:  Englantilaiset    Metriset   Molemmat
« Edellinen Päivä
Seuraava Päivä »
Päivittäin Viikoittain Kuukausittain Vuosittain Mukautettu
  Korkea: Matala: Keskiarvo:
Lämpötila: TemperatureC °F 8.2 °F 14 °F
Kastepiste: DewpointC °F 7.4 °F 8.9 °F
Kosteus: Humidity % 46 % 73 %
Tuulen nopeus: WindSpeedKMH mph 0.0 mph 2.8 mph
Tuulenpuuska: WindSpeedGustKMH mph - -
Tuuli:- - SSW
Ilmanpaine: PressurehPa in 1002.3 in -
Sade: 0.3 in    
Historical Graphs
 
 
Taulukkotiedot Kesäkuu 6, 2017
Aika Lämpötila Kastepiste Ilmanpaine Tuuli Tuulen nopeus Tuulenpuuska Kosteus Sademäärä (tunneittain)
TemperatureC °F DewpointC °F PressurehPa in Calm     Humidity % HourlyPrecipMM in
00:00 10.8 °F 10.1 °F 1002.3 in Calm     95 % 0.0 in
00:15 10.7 °F 9.9 °F 1002.3 in Calm     95 % 0.0 in
00:30 10.2 °F 9.5 °F 1002.6 in Calm     95 % 0.0 in
00:45 9.9 °F 9.1 °F 1002.9 in Calm     95 % 0.0 in
01:00 9.7 °F 8.9 °F 1002.9 in Calm     95 % 0.0 in
01:15 9.5 °F 8.7 °F 1003.3 in Calm     95 % 0.0 in
01:30 9.4 °F 8.6 °F 1003.6 in Calm     95 % 0.0 in
01:45 9.3 °F 8.6 °F 1003.9 in Calm     95 % 0.0 in
02:00 9.3 °F 8.6 °F 1004.3 in Calm     95 % 0.0 in
02:15 9.3 °F 8.6 °F 1004.3 in Calm     95 % 0.0 in
02:30 9.4 °F 8.6 °F 1004.3 in Calm     95 % 0.0 in
02:45 9.4 °F 8.6 °F 1004.6 in Calm     95 % 0.0 in
03:00 9.4 °F 8.6 °F 1004.6 in SSW 3.2 mph 9.7 mph 95 % 0.0 in
03:15 9.4 °F 8.8 °F 1005.0 in SSW 1.6 mph 9.7 mph 96 % 0.0 in
03:30 9.4 °F 8.8 °F 1005.0 in SSW 3.2 mph 9.7 mph 96 % 0.0 in
03:45 9.4 °F 8.8 °F 1005.3 in SSW 3.2 mph 11.3 mph 96 % 0.0 in
04:00 9.4 °F 8.8 °F 1005.3 in SSW 1.6 mph 9.7 mph 96 % 0.0 in
04:15 9.3 °F 8.7 °F 1005.6 in SW 3.2 mph 11.3 mph 96 % 0.0 in
04:30 9.1 °F 8.5 °F 1006.0 in SSW 3.2 mph 12.9 mph 96 % 0.0 in
04:45 9.0 °F 8.2 °F 1006.0 in SSW 1.6 mph 6.4 mph 95 % 0.0 in
05:00 8.8 °F 8.0 °F 1006.3 in Calm   8.0 mph 95 % 0.0 in
05:15 8.5 °F 7.7 °F 1006.3 in SSW 1.6 mph 8.0 mph 95 % 0.0 in
05:30 8.3 °F 7.5 °F 1006.3 in SSW 1.6 mph 12.9 mph 95 % 0.0 in
05:45 8.2 °F 7.4 °F 1006.7 in Calm   8.0 mph 95 % 0.0 in
06:00 8.2 °F 7.5 °F 1007.0 in SW 1.6 mph 8.0 mph 95 % 0.0 in
06:15 8.2 °F 7.5 °F 1007.3 in SSW 3.2 mph 9.7 mph 95 % 0.0 in
06:30 8.3 °F 7.4 °F 1007.3 in SSW 3.2 mph 8.0 mph 94 % 0.0 in
06:45 8.4 °F 7.5 °F 1007.3 in SSW 3.2 mph 8.0 mph 94 % 0.0 in
07:00 8.8 °F 7.8 °F 1007.7 in SSW 3.2 mph 8.0 mph 93 % 0.0 in
07:15 9.2 °F 7.9 °F 1007.7 in Calm   4.8 mph 92 % 0.0 in
07:30 9.6 °F 8.2 °F 1008.0 in SW 1.6 mph 8.0 mph 91 % 0.0 in
07:45 10.0 °F 8.3 °F 1008.0 in Calm   6.4 mph 89 % 0.0 in
08:00 10.4 °F 8.4 °F 1008.4 in SW 1.6 mph 4.8 mph 87 % 0.0 in
08:15 10.8 °F 8.4 °F 1008.7 in SSW 3.2 mph 8.0 mph 85 % 0.0 in
08:30 11.4 °F 8.4 °F 1008.7 in SSW 1.6 mph 8.0 mph 82 % 0.0 in
08:45 11.9 °F 8.6 °F 1009.0 in SW 3.2 mph 11.3 mph 80 % 0.0 in
09:00 12.3 °F 8.8 °F 1009.0 in SW 3.2 mph 9.7 mph 79 % 0.0 in
09:15 12.7 °F 8.4 °F 1009.0 in SW 3.2 mph 9.7 mph 75 % 0.0 in
09:30 13.2 °F 8.9 °F 1009.4 in SSW 1.6 mph 12.9 mph 75 % 0.0 in
09:45 13.2 °F 8.9 °F 1009.4 in SSW 3.2 mph 9.7 mph 75 % 0.0 in
10:00 13.5 °F 8.8 °F 1009.7 in SSW 4.8 mph 12.9 mph 73 % 0.0 in
10:15 14.0 °F 9.2 °F 1009.7 in SSW 1.6 mph 8.0 mph 73 % 0.0 in
10:30 14.3 °F 8.9 °F 1009.7 in South 4.8 mph 11.3 mph 70 % 0.0 in
10:45 15.3 °F 9.0 °F 1010.0 in SSW 1.6 mph 11.3 mph 66 % 0.3 in
11:00 14.9 °F 8.2 °F 1010.0 in SSW 4.8 mph 12.9 mph 64 % 0.3 in
11:15 15.6 °F 8.3 °F 1010.0 in SSW 3.2 mph 11.3 mph 62 % 0.3 in
11:30 16.0 °F 9.0 °F 1010.0 in South 4.8 mph 12.9 mph 63 % 0.3 in
11:45 16.3 °F 7.8 °F 1010.0 in South 3.2 mph 11.3 mph 57 % 0.0 in
12:00 16.7 °F 7.6 °F 1010.0 in South 3.2 mph 16.1 mph 55 % 0.0 in
12:15 17.3 °F 8.7 °F 1010.0 in SSW 4.8 mph 12.9 mph 57 % 0.0 in
12:30 17.4 °F 8.3 °F 1010.4 in SSW 4.8 mph 12.9 mph 55 % 0.0 in
12:45 17.6 °F 8.7 °F 1010.4 in SSW 4.8 mph 14.5 mph 56 % 0.0 in
13:00 17.4 °F 8.3 °F 1010.4 in SW 3.2 mph 14.5 mph 55 % 0.0 in
13:15 17.9 °F 8.5 °F 1010.4 in SSW 4.8 mph 14.5 mph 54 % 0.0 in
13:30 17.9 °F 9.0 °F 1010.4 in South 4.8 mph 17.7 mph 56 % 0.0 in
13:45 18.2 °F 9.2 °F 1010.4 in SSW 4.8 mph 12.9 mph 56 % 0.0 in
14:00 18.2 °F 9.5 °F 1010.4 in South 4.8 mph 14.5 mph 57 % 0.0 in
14:15 18.2 °F 9.2 °F 1010.7 in SSW 4.8 mph 12.9 mph 56 % 0.0 in
14:30 18.2 °F 10.1 °F 1010.7 in SW 3.2 mph 12.9 mph 59 % 0.0 in
14:45 18.8 °F 10.1 °F 1010.7 in SW 4.8 mph 14.5 mph 57 % 0.0 in
15:00 18.5 °F 10.1 °F 1011.1 in SSW 6.4 mph 14.5 mph 58 % 0.0 in
15:15 18.7 °F 9.2 °F 1011.1 in SSW 9.7 mph 19.3 mph 54 % 0.0 in
15:30 18.7 °F 9.5 °F 1011.1 in SSW 6.4 mph 12.9 mph 55 % 0.0 in
15:45 18.8 °F 9.5 °F 1011.4 in SSW 6.4 mph 16.1 mph 55 % 0.0 in
16:00 19.3 °F 9.5 °F 1011.4 in SSW 6.4 mph 16.1 mph 53 % 0.0 in
16:15 19.4 °F 9.6 °F 1011.4 in SSW 6.4 mph 20.9 mph 53 % 0.0 in
16:30 19.1 °F 9.0 °F 1011.4 in SSW 8.0 mph 17.7 mph 52 % 0.0 in
16:45 19.5 °F 8.8 °F 1011.4 in SSW 9.7 mph 19.3 mph 50 % 0.0 in
17:00 20.1 °F 8.7 °F 1011.4 in SSW 8.0 mph 19.3 mph 48 % 0.0 in
17:15 19.8 °F 8.2 °F 1011.7 in SW 8.0 mph 16.1 mph 47 % 0.0 in
17:30 19.3 °F 7.4 °F 1011.7 in SSW 6.4 mph 14.5 mph 46 % 0.0 in
17:45 19.8 °F 7.8 °F 1012.1 in SW 6.4 mph 14.5 mph 46 % 0.0 in
18:00 18.9 °F 7.9 °F 1012.4 in SSW 8.0 mph 19.3 mph 49 % 0.0 in
18:15 18.8 °F 8.7 °F 1012.1 in WSW 4.8 mph 17.7 mph 52 % 0.0 in
18:30 19.2 °F 9.1 °F 1012.4 in WSW 4.8 mph 16.1 mph 52 % 0.0 in
18:45 18.9 °F 8.9 °F 1012.4 in WSW 4.8 mph 12.9 mph 52 % 0.0 in
19:00 18.9 °F 9.1 °F 1012.4 in WSW 1.6 mph 11.3 mph 53 % 0.0 in
19:15 19.1 °F 9.5 °F 1012.4 in WSW 1.6 mph 9.7 mph 54 % 0.0 in
19:30 19.0 °F 9.8 °F 1012.4 in West 1.6 mph 9.7 mph 55 % 0.0 in
19:45 18.6 °F 9.9 °F 1012.4 in SW 1.6 mph 8.0 mph 57 % 0.0 in
20:00 18.4 °F 9.7 °F 1012.8 in SW 3.2 mph 14.5 mph 57 % 0.0 in
20:15 17.9 °F 9.8 °F 1012.8 in SSW 3.2 mph 11.3 mph 59 % 0.0 in
20:30 17.8 °F 10.2 °F 1013.1 in WSW 1.6 mph 9.7 mph 61 % 0.0 in
20:45 17.7 °F 10.3 °F 1013.1 in SW 1.6 mph 8.0 mph 62 % 0.0 in
21:00 17.4 °F 10.3 °F 1013.1 in Calm   6.4 mph 63 % 0.0 in
21:15 17.1 °F 10.7 °F 1013.4 in Calm   4.8 mph 66 % 0.0 in
21:30 16.8 °F 10.8 °F 1013.4 in Calm   4.8 mph 68 % 0.0 in
21:45 16.7 °F 10.7 °F 1013.8 in Calm   4.8 mph 68 % 0.0 in
22:00 16.4 °F 10.5 °F 1013.8 in Calm     68 % 0.0 in
22:15 16.1 °F 10.8 °F 1013.8 in Calm     71 % 0.0 in
22:30 15.6 °F 10.5 °F 1013.8 in Calm     72 % 0.0 in
22:45 14.8 °F 10.6 °F 1014.1 in Calm     76 % 0.0 in
23:00 13.9 °F 10.3 °F 1014.1 in Calm     79 % 0.0 in
23:15 13.1 °F 10.1 °F 1014.1 in Calm     82 % 0.0 in
23:30 12.4 °F 9.8 °F 1014.4 in Calm     84 % 0.0 in
23:45 11.8 °F 9.3 °F 1014.4 in Calm     85 % 0.0 in
Esan sääasema
Terveisin Weather Underground - 3 mb

Alkuperäinen skripti  Jim McMurry - jmcmurry@mwt.net Sovitettu myös templatelle  Wim van der Kuil - Leuven-Template.eu

Laitteet joita käytämme:

Sääasema
Davis VP2

Sääasemaohjelma
Cumulus

Sääaseman tietokone
Asus EeePC

Palveluntarjoaja
Suncomet

Davis VP2

Cumulus

Asus EeePC

Suncomet